Актау

Карта отелей и гостиниц, располагающихся рядом с аэропортом Актау :

Актау Мангистауская область 43° 51' 36.4788" N, 51° 5' 26.7612" E
Код аэродрома ИКАО
UATE
Код аэродрома RU
УАТЕ
Координаты
N43.86013° E051.09077°
Превышение над уровнем моря
25
Основная полоса
12R/30L
Курс магнитный
115,5/295,5
Длина основной ВПП
3050
Ширина основной ВПП
45
Покрытие основной ВПП
Твёрдое (асфальтобетон)
Освещение ВПП
Постоянное
Тип: 
Аэродром
Класс аэродрома: 
Международный
Принадлежность: 
ГА
Статус: 
Действующий
Сайт: 
http://aktau-airport.kz/
Страна: 
Казахстан
Регион: 
Мангистауская область
Дополнительная информация: 
Совместного базирования. Эксплуатант: АО «Международный аэропорт Актау». Базируется военная авиация (самолёты Су-25, Су-27). В 2004 г. совместным приказом Министерства Обороны и Министерства транспорта Республики Казахстан было принято решение о включении аэродрома Актау в перечень аэродромов совместного базирования по принадлежности к гражданской авиации. Размещение на аэродроме самолетов Сил воздушной обороны Республики Казахстан подразумевает защиту западных рубежей Казахстана. Был принят в эксплуатацию в 1983 г. и до распада СССР носил название "Шевченко (Центральный)". Порог ВПП 12R смещен в сторону КТА на 200 м.
Погода: 

Авиационная погода в Актау

Регион: 
Погода METAR: 
UATE 171630Z 28001MPS CAVOK 16/02 Q1020 R30/0///70 NOSIG RMK QFE763/1018
Время наблюдения
2021-04-17T16:30:00Z
Температура C
16.0
Точка росы
2.0
Направление ветра
280
Скорость ветра (узлы)
2
Метео видимость
6.21
Явления погоды
Условия полета
VFR
Аэропорт подробнее: 
Прогноз TAF: 

Найти трансфер

С помощью этой формы Вы можете найти трансфер из аэропорта Актау в город, аэропорт или вокзал:

Карта места

Javascript is required to view this map.

Погода в аэропортах:

Авиационная погода в Вардё

Регион: 
Погода METAR: 
ENSS 161920Z 26018KT 9999 -RA FEW026 SCT043 03/01 Q1025 RMK WIND 500FT 27031KT
Время наблюдения
2021-04-16T19:20:00Z
Температура C
3.0
Точка росы
1.0
Направление ветра
260
Скорость ветра (узлы)
18
Метео видимость
6.21
Явления погоды
-RA
Условия полета
VFR

Авиационная погода в Ботсфьорде

Регион: 
Погода METAR: 
ENBS 161920Z 27037G47KT 9999 VCSH SCT020 SCT041 03/01 Q1023
Время наблюдения
2021-04-16T19:20:00Z
Температура C
3.0
Точка росы
1.0
Направление ветра
270
Скорость ветра (узлы)
37
Метео видимость
6.21
Явления погоды
VCSH
Условия полета
VFR

Авиационная погода в Полярном

Регион: 
Погода METAR: 
UERP 171700Z 30006G12MPS 9999 -SHSN DRSN BKN017CB OVC100 M12/M14 Q0995 NOSIG RMK QFE702
Время наблюдения
2021-04-17T17:00:00Z
Температура C
-12.0
Точка росы
-14.0
Направление ветра
300
Скорость ветра (узлы)
12
Метео видимость
6.21
Явления погоды
-SHSN DRSN
Условия полета
MVFR
Аэропорт подробнее: 

Авиационная погода в Вадсё

Регион: 
Погода METAR: 
ENVD 171320Z 05008KT 4000 DZ BKN004 01/00 Q1032
Время наблюдения
2021-04-17T13:20:00Z
Температура C
1.0
Точка росы
0.0
Направление ветра
50
Скорость ветра (узлы)
8
Метео видимость
2.49
Явления погоды
DZ
Условия полета
LIFR